sensor_id;sensor_type;location;lat;lon;timestamp;P1;P2;P0
50589;PMS7003;36547;50.514;30.840;2023-03-31T00:01:00;66.44;52.22;32.67
50589;PMS7003;36547;50.514;30.840;2023-03-31T00:02:03;60.11;47.11;26.22
50589;PMS7003;36547;50.514;30.840;2023-03-31T00:03:06;67.20;53.00;33.20
50589;PMS7003;36547;50.514;30.840;2023-03-31T00:04:09;69.40;53.40;32.70
50589;PMS7003;36547;50.514;30.840;2023-03-31T00:05:12;68.00;52.80;32.00
50589;PMS7003;36547;50.514;30.840;2023-03-31T00:06:14;61.90;48.70;28.10
50589;PMS7003;36547;50.514;30.840;2023-03-31T00:07:17;67.40;52.60;31.60
50589;PMS7003;36547;50.514;30.840;2023-03-31T00:08:20;63.00;49.90;31.60
50589;PMS7003;36547;50.514;30.840;2023-03-31T00:09:23;63.80;50.90;32.50
50589;PMS7003;36547;50.514;30.840;2023-03-31T00:11:36;64.70;51.80;33.20
50589;PMS7003;36547;50.514;30.840;2023-03-31T00:12:39;60.80;49.20;31.10
50589;PMS7003;36547;50.514;30.840;2023-03-31T00:13:41;58.10;43.60;27.30
50589;PMS7003;36547;50.514;30.840;2023-03-31T00:14:43;60.89;47.67;29.00
50589;PMS7003;36547;50.514;30.840;2023-03-31T00:15:45;58.22;47.56;27.89
50589;PMS7003;36547;50.514;30.840;2023-03-31T00:16:47;59.56;49.00;32.11
50589;PMS7003;36547;50.514;30.840;2023-03-31T00:17:50;60.90;47.30;29.00
50589;PMS7003;36547;50.514;30.840;2023-03-31T00:18:52;60.60;49.10;31.40
50589;PMS7003;36547;50.514;30.840;2023-03-31T00:19:54;60.30;46.80;29.20
50589;PMS7003;36547;50.514;30.840;2023-03-31T00:21:13;61.60;47.10;30.60
50589;PMS7003;36547;50.514;30.840;2023-03-31T00:22:17;64.30;50.70;31.90
50589;PMS7003;36547;50.514;30.840;2023-03-31T00:23:19;64.90;51.80;32.20
50589;PMS7003;36547;50.514;30.840;2023-03-31T00:24:21;66.90;50.70;32.40
50589;PMS7003;36547;50.514;30.840;2023-03-31T00:25:23;65.33;50.67;32.67
50589;PMS7003;36547;50.514;30.840;2023-03-31T00:26:26;63.67;51.33;31.56
50589;PMS7003;36547;50.514;30.840;2023-03-31T00:27:29;71.50;53.90;33.50
50589;PMS7003;36547;50.514;30.840;2023-03-31T00:28:32;65.60;52.10;32.60
50589;PMS7003;36547;50.514;30.840;2023-03-31T00:29:34;66.00;50.60;32.70
50589;PMS7003;36547;50.514;30.840;2023-03-31T00:30:36;67.80;52.10;32.80
50589;PMS7003;36547;50.514;30.840;2023-03-31T00:31:39;64.70;50.60;31.00
50589;PMS7003;36547;50.514;30.840;2023-03-31T00:32:41;61.89;51.33;32.11
50589;PMS7003;36547;50.514;30.840;2023-03-31T00:33:45;62.00;51.00;32.20
50589;PMS7003;36547;50.514;30.840;2023-03-31T00:34:47;66.80;53.00;32.90
50589;PMS7003;36547;50.514;30.840;2023-03-31T00:35:52;66.56;50.78;32.00
50589;PMS7003;36547;50.514;30.840;2023-03-31T00:36:55;57.90;46.90;27.90
50589;PMS7003;36547;50.514;30.840;2023-03-31T00:37:57;64.30;50.60;31.60
50589;PMS7003;36547;50.514;30.840;2023-03-31T00:39:00;59.10;48.70;30.80
50589;PMS7003;36547;50.514;30.840;2023-03-31T00:40:05;62.80;49.10;29.40
50589;PMS7003;36547;50.514;30.840;2023-03-31T00:41:08;66.40;52.50;32.30
50589;PMS7003;36547;50.514;30.840;2023-03-31T00:42:10;61.90;48.80;32.40
50589;PMS7003;36547;50.514;30.840;2023-03-31T00:43:22;65.22;51.00;30.89
50589;PMS7003;36547;50.514;30.840;2023-03-31T00:44:31;62.60;50.40;31.30
50589;PMS7003;36547;50.514;30.840;2023-03-31T00:45:33;65.80;51.50;32.10
50589;PMS7003;36547;50.514;30.840;2023-03-31T00:46:37;66.50;53.10;32.90
50589;PMS7003;36547;50.514;30.840;2023-03-31T00:48:57;68.40;53.50;33.60
50589;PMS7003;36547;50.514;30.840;2023-03-31T00:49:59;69.60;52.80;32.40
50589;PMS7003;36547;50.514;30.840;2023-03-31T00:51:03;64.60;51.70;32.60
50589;PMS7003;36547;50.514;30.840;2023-03-31T00:53:17;70.10;53.40;32.80
50589;PMS7003;36547;50.514;30.840;2023-03-31T00:54:23;65.50;52.60;33.40
50589;PMS7003;36547;50.514;30.840;2023-03-31T00:56:41;69.40;54.90;34.60
50589;PMS7003;36547;50.514;30.840;2023-03-31T00:57:46;63.70;51.30;32.80
50589;PMS7003;36547;50.514;30.840;2023-03-31T00:58:49;38.20;29.70;5.80
50589;PMS7003;36547;50.514;30.840;2023-03-31T00:59:52;56.30;45.80;28.30
50589;PMS7003;36547;50.514;30.840;2023-03-31T01:00:57;66.70;52.50;33.10
50589;PMS7003;36547;50.514;30.840;2023-03-31T01:02:02;61.30;49.70;32.50
50589;PMS7003;36547;50.514;30.840;2023-03-31T01:03:06;58.40;47.70;31.60
50589;PMS7003;36547;50.514;30.840;2023-03-31T01:04:09;63.40;49.50;31.90
50589;PMS7003;36547;50.514;30.840;2023-03-31T01:05:14;59.40;47.00;28.70
50589;PMS7003;36547;50.514;30.840;2023-03-31T01:06:17;60.00;48.55;30.55
50589;PMS7003;36547;50.514;30.840;2023-03-31T01:07:28;61.80;48.30;30.30
50589;PMS7003;36547;50.514;30.840;2023-03-31T01:08:47;51.70;43.80;26.70
50589;PMS7003;36547;50.514;30.840;2023-03-31T01:09:52;58.60;47.00;30.60
50589;PMS7003;36547;50.514;30.840;2023-03-31T01:11:02;62.70;46.80;30.00
50589;PMS7003;36547;50.514;30.840;2023-03-31T01:12:12;63.80;50.20;31.50
50589;PMS7003;36547;50.514;30.840;2023-03-31T01:13:18;62.40;48.80;30.70
50589;PMS7003;36547;50.514;30.840;2023-03-31T01:14:23;52.40;41.70;25.20
50589;PMS7003;36547;50.514;30.840;2023-03-31T01:15:26;55.45;44.82;27.55
50589;PMS7003;36547;50.514;30.840;2023-03-31T01:16:28;58.89;45.89;28.89
50589;PMS7003;36547;50.514;30.840;2023-03-31T01:17:31;51.80;41.20;28.00
50589;PMS7003;36547;50.514;30.840;2023-03-31T01:18:34;49.40;40.30;26.70
50589;PMS7003;36547;50.514;30.840;2023-03-31T01:28:32;42.80;37.50;24.60
50589;PMS7003;36547;50.514;30.840;2023-03-31T01:32:50;39.30;34.50;23.50
50589;PMS7003;36547;50.514;30.840;2023-03-31T01:33:58;42.10;36.80;24.40
50589;PMS7003;36547;50.514;30.840;2023-03-31T01:43:45;55.80;44.40;28.00
50589;PMS7003;36547;50.514;30.840;2023-03-31T01:45:11;49.70;40.20;27.20
50589;PMS7003;36547;50.514;30.840;2023-03-31T01:46:36;48.60;40.60;26.60
50589;PMS7003;36547;50.514;30.840;2023-03-31T01:47:56;48.90;40.00;26.10
50589;PMS7003;36547;50.514;30.840;2023-03-31T01:52:28;51.30;42.10;25.60
50589;PMS7003;36547;50.514;30.840;2023-03-31T01:56:14;45.00;39.70;26.20
50589;PMS7003;36547;50.514;30.840;2023-03-31T01:57:22;55.00;41.10;26.40
50589;PMS7003;36547;50.514;30.840;2023-03-31T01:58:49;49.00;38.80;26.00
50589;PMS7003;36547;50.514;30.840;2023-03-31T02:00:04;42.60;35.50;22.90
50589;PMS7003;36547;50.514;30.840;2023-03-31T02:01:16;46.40;39.70;25.90
50589;PMS7003;36547;50.514;30.840;2023-03-31T02:02:30;41.80;37.80;24.10
50589;PMS7003;36547;50.514;30.840;2023-03-31T02:03:37;45.10;38.30;25.80
50589;PMS7003;36547;50.514;30.840;2023-03-31T02:04:46;40.80;36.40;23.30
50589;PMS7003;36547;50.514;30.840;2023-03-31T02:07:08;52.80;42.40;27.00
50589;PMS7003;36547;50.514;30.840;2023-03-31T02:09:48;50.30;38.40;24.70
50589;PMS7003;36547;50.514;30.840;2023-03-31T02:10:54;52.10;40.30;25.10
50589;PMS7003;36547;50.514;30.840;2023-03-31T02:11:58;47.30;37.40;25.20
50589;PMS7003;36547;50.514;30.840;2023-03-31T02:13:03;43.70;37.30;24.80
50589;PMS7003;36547;50.514;30.840;2023-03-31T02:14:08;40.90;37.00;23.10
50589;PMS7003;36547;50.514;30.840;2023-03-31T02:15:14;48.50;40.30;26.10
50589;PMS7003;36547;50.514;30.840;2023-03-31T02:16:22;40.90;37.10;24.70
50589;PMS7003;36547;50.514;30.840;2023-03-31T02:17:26;44.70;38.60;25.50
50589;PMS7003;36547;50.514;30.840;2023-03-31T02:18:30;43.18;38.09;25.36
50589;PMS7003;36547;50.514;30.840;2023-03-31T02:19:36;53.30;42.40;25.40
50589;PMS7003;36547;50.514;30.840;2023-03-31T02:20:40;53.82;42.64;27.64
50589;PMS7003;36547;50.514;30.840;2023-03-31T02:21:48;56.50;42.30;26.60
50589;PMS7003;36547;50.514;30.840;2023-03-31T02:22:53;55.30;41.70;27.30
50589;PMS7003;36547;50.514;30.840;2023-03-31T02:23:59;49.40;39.40;25.10
50589;PMS7003;36547;50.514;30.840;2023-03-31T02:25:05;34.40;31.20;12.70
50589;PMS7003;36547;50.514;30.840;2023-03-31T02:27:34;59.20;46.40;29.20
50589;PMS7003;36547;50.514;30.840;2023-03-31T02:28:38;54.90;43.50;27.00
50589;PMS7003;36547;50.514;30.840;2023-03-31T02:29:41;52.00;43.60;27.30
50589;PMS7003;36547;50.514;30.840;2023-03-31T02:33:42;46.30;41.60;25.80
50589;PMS7003;36547;50.514;30.840;2023-03-31T02:34:45;47.00;39.60;25.70
50589;PMS7003;36547;50.514;30.840;2023-03-31T02:35:47;38.91;36.00;24.18
50589;PMS7003;36547;50.514;30.840;2023-03-31T02:36:49;46.60;39.00;25.60
50589;PMS7003;36547;50.514;30.840;2023-03-31T02:37:52;49.20;36.90;23.90
50589;PMS7003;36547;50.514;30.840;2023-03-31T02:38:56;38.60;34.00;23.80
50589;PMS7003;36547;50.514;30.840;2023-03-31T02:40:14;49.90;41.80;26.60
50589;PMS7003;36547;50.514;30.840;2023-03-31T02:41:15;33.90;32.20;16.20
50589;PMS7003;36547;50.514;30.840;2023-03-31T02:42:17;47.70;38.70;26.20
50589;PMS7003;36547;50.514;30.840;2023-03-31T02:43:22;51.40;41.50;26.50
50589;PMS7003;36547;50.514;30.840;2023-03-31T02:44:25;50.70;40.80;26.90
50589;PMS7003;36547;50.514;30.840;2023-03-31T02:46:48;43.30;37.00;22.70
50589;PMS7003;36547;50.514;30.840;2023-03-31T02:47:51;41.60;36.00;19.10
50589;PMS7003;36547;50.514;30.840;2023-03-31T02:48:54;43.60;37.90;24.20
50589;PMS7003;36547;50.514;30.840;2023-03-31T02:50:00;45.20;37.60;25.40
50589;PMS7003;36547;50.514;30.840;2023-03-31T02:55:23;56.40;45.80;28.60
50589;PMS7003;36547;50.514;30.840;2023-03-31T02:56:45;52.70;43.50;28.50
50589;PMS7003;36547;50.514;30.840;2023-03-31T03:01:38;52.60;40.10;23.80
50589;PMS7003;36547;50.514;30.840;2023-03-31T03:05:47;55.20;44.70;27.80
50589;PMS7003;36547;50.514;30.840;2023-03-31T03:08:39;63.50;48.20;30.50
50589;PMS7003;36547;50.514;30.840;2023-03-31T03:11:07;61.30;47.70;30.60
50589;PMS7003;36547;50.514;30.840;2023-03-31T03:12:15;58.80;45.80;27.80
50589;PMS7003;36547;50.514;30.840;2023-03-31T03:13:29;59.40;45.20;29.90
50589;PMS7003;36547;50.514;30.840;2023-03-31T03:15:48;49.40;40.00;25.60
50589;PMS7003;36547;50.514;30.840;2023-03-31T03:17:09;47.60;40.20;26.30
50589;PMS7003;36547;50.514;30.840;2023-03-31T03:18:11;55.40;44.10;27.50
50589;PMS7003;36547;50.514;30.840;2023-03-31T03:19:17;51.40;42.40;27.10
50589;PMS7003;36547;50.514;30.840;2023-03-31T03:20:21;49.50;41.90;27.30
50589;PMS7003;36547;50.514;30.840;2023-03-31T03:21:23;56.90;43.50;27.90
50589;PMS7003;36547;50.514;30.840;2023-03-31T03:22:26;47.60;39.70;25.80
50589;PMS7003;36547;50.514;30.840;2023-03-31T03:23:28;48.60;41.10;26.80
50589;PMS7003;36547;50.514;30.840;2023-03-31T03:24:30;44.00;37.80;24.80
50589;PMS7003;36547;50.514;30.840;2023-03-31T03:25:32;40.78;35.56;23.44
50589;PMS7003;36547;50.514;30.840;2023-03-31T03:26:34;42.80;37.50;23.80
50589;PMS7003;36547;50.514;30.840;2023-03-31T03:27:37;39.00;34.44;23.44
50589;PMS7003;36547;50.514;30.840;2023-03-31T03:28:39;39.20;34.70;23.30
50589;PMS7003;36547;50.514;30.840;2023-03-31T03:29:41;40.67;36.44;22.22
50589;PMS7003;36547;50.514;30.840;2023-03-31T03:30:43;29.10;25.30;15.10
50589;PMS7003;36547;50.514;30.840;2023-03-31T03:31:47;37.45;34.27;22.73
50589;PMS7003;36547;50.514;30.840;2023-03-31T03:32:49;27.80;26.10;16.20
50589;PMS7003;36547;50.514;30.840;2023-03-31T03:33:51;31.50;29.50;21.80
50589;PMS7003;36547;50.514;30.840;2023-03-31T03:34:54;34.80;30.30;21.90
50589;PMS7003;36547;50.514;30.840;2023-03-31T03:35:56;32.70;29.40;19.30
50589;PMS7003;36547;50.514;30.840;2023-03-31T03:36:58;33.80;30.20;20.20
50589;PMS7003;36547;50.514;30.840;2023-03-31T03:38:01;31.80;29.80;20.30
50589;PMS7003;36547;50.514;30.840;2023-03-31T03:39:04;32.78;27.22;19.56
50589;PMS7003;36547;50.514;30.840;2023-03-31T03:40:09;34.60;27.90;20.00
50589;PMS7003;36547;50.514;30.840;2023-03-31T03:41:12;33.50;29.40;20.90
50589;PMS7003;36547;50.514;30.840;2023-03-31T03:42:14;27.44;27.33;19.22
50589;PMS7003;36547;50.514;30.840;2023-03-31T03:43:16;28.70;24.60;14.90
50589;PMS7003;36547;50.514;30.840;2023-03-31T03:44:18;31.00;26.89;19.67
50589;PMS7003;36547;50.514;30.840;2023-03-31T03:45:20;30.90;28.30;18.20
50589;PMS7003;36547;50.514;30.840;2023-03-31T03:46:22;27.70;22.60;16.10
50589;PMS7003;36547;50.514;30.840;2023-03-31T03:47:25;22.10;20.50;14.90
50589;PMS7003;36547;50.514;30.840;2023-03-31T03:48:28;26.20;22.30;15.90
50589;PMS7003;36547;50.514;30.840;2023-03-31T03:49:31;20.80;19.30;13.90
50589;PMS7003;36547;50.514;30.840;2023-03-31T03:50:34;24.20;24.20;15.30
50589;PMS7003;36547;50.514;30.840;2023-03-31T03:51:37;21.20;20.60;14.70
50589;PMS7003;36547;50.514;30.840;2023-03-31T03:52:39;24.90;21.50;16.10
50589;PMS7003;36547;50.514;30.840;2023-03-31T03:53:42;20.60;15.50;8.70
50589;PMS7003;36547;50.514;30.840;2023-03-31T03:54:44;26.89;22.44;15.44
50589;PMS7003;36547;50.514;30.840;2023-03-31T03:55:46;25.60;23.50;15.80
50589;PMS7003;36547;50.514;30.840;2023-03-31T03:56:48;28.11;24.22;17.00
50589;PMS7003;36547;50.514;30.840;2023-03-31T03:57:50;26.50;23.50;15.20
50589;PMS7003;36547;50.514;30.840;2023-03-31T03:58:53;23.70;21.40;15.50
50589;PMS7003;36547;50.514;30.840;2023-03-31T03:59:56;22.00;20.20;14.20
50589;PMS7003;36547;50.514;30.840;2023-03-31T04:00:58;25.60;21.40;14.30
50589;PMS7003;36547;50.514;30.840;2023-03-31T04:02:00;21.78;20.22;14.33
50589;PMS7003;36547;50.514;30.840;2023-03-31T04:03:02;23.00;20.44;12.44
50589;PMS7003;36547;50.514;30.840;2023-03-31T04:04:05;25.20;20.60;13.70
50589;PMS7003;36547;50.514;30.840;2023-03-31T04:05:07;22.80;19.20;14.50
50589;PMS7003;36547;50.514;30.840;2023-03-31T04:06:10;23.36;21.09;14.64
50589;PMS7003;36547;50.514;30.840;2023-03-31T04:07:12;21.20;20.40;14.00
50589;PMS7003;36547;50.514;30.840;2023-03-31T04:08:15;21.90;19.40;12.90
50589;PMS7003;36547;50.514;30.840;2023-03-31T04:09:18;23.60;20.80;15.70
50589;PMS7003;36547;50.514;30.840;2023-03-31T04:10:20;17.10;16.10;12.80
50589;PMS7003;36547;50.514;30.840;2023-03-31T04:11:22;17.89;17.89;11.89
50589;PMS7003;36547;50.514;30.840;2023-03-31T04:12:24;18.40;17.40;12.80
50589;PMS7003;36547;50.514;30.840;2023-03-31T04:13:27;22.10;19.10;12.90
50589;PMS7003;36547;50.514;30.840;2023-03-31T04:14:29;19.00;17.80;13.70
50589;PMS7003;36547;50.514;30.840;2023-03-31T04:15:31;18.70;18.30;13.40
50589;PMS7003;36547;50.514;30.840;2023-03-31T04:16:34;11.30;10.10;5.90
50589;PMS7003;36547;50.514;30.840;2023-03-31T04:17:37;19.40;16.20;10.60
50589;PMS7003;36547;50.514;30.840;2023-03-31T04:18:39;8.80;8.30;4.20
50589;PMS7003;36547;50.514;30.840;2023-03-31T04:19:41;19.70;18.40;13.40
50589;PMS7003;36547;50.514;30.840;2023-03-31T04:20:44;18.00;15.50;11.10
50589;PMS7003;36547;50.514;30.840;2023-03-31T04:21:46;19.30;18.30;13.20
50589;PMS7003;36547;50.514;30.840;2023-03-31T04:22:49;20.60;20.60;14.10
50589;PMS7003;36547;50.514;30.840;2023-03-31T04:23:52;19.90;19.30;13.10
50589;PMS7003;36547;50.514;30.840;2023-03-31T04:24:56;19.20;18.20;13.30
50589;PMS7003;36547;50.514;30.840;2023-03-31T04:25:58;18.67;15.44;12.78
50589;PMS7003;36547;50.514;30.840;2023-03-31T04:27:00;19.30;15.90;11.10
50589;PMS7003;36547;50.514;30.840;2023-03-31T04:28:02;16.22;16.22;12.67
50589;PMS7003;36547;50.514;30.840;2023-03-31T04:29:05;18.90;16.70;11.50
50589;PMS7003;36547;50.514;30.840;2023-03-31T04:30:08;17.70;15.10;11.50
50589;PMS7003;36547;50.514;30.840;2023-03-31T04:31:12;17.10;15.60;11.40
50589;PMS7003;36547;50.514;30.840;2023-03-31T04:32:15;18.10;16.00;12.50
50589;PMS7003;36547;50.514;30.840;2023-03-31T04:33:18;22.50;18.40;13.30
50589;PMS7003;36547;50.514;30.840;2023-03-31T04:34:20;20.67;18.67;12.33
50589;PMS7003;36547;50.514;30.840;2023-03-31T04:35:23;21.00;20.00;13.40
50589;PMS7003;36547;50.514;30.840;2023-03-31T04:36:27;21.90;17.00;12.20
50589;PMS7003;36547;50.514;30.840;2023-03-31T04:37:30;20.00;16.09;11.55
50589;PMS7003;36547;50.514;30.840;2023-03-31T04:38:32;11.20;8.60;4.10
50589;PMS7003;36547;50.514;30.840;2023-03-31T04:39:34;21.70;18.60;13.30
50589;PMS7003;36547;50.514;30.840;2023-03-31T04:40:36;23.67;19.89;14.33
50589;PMS7003;36547;50.514;30.840;2023-03-31T04:41:38;19.11;18.78;13.44
50589;PMS7003;36547;50.514;30.840;2023-03-31T04:42:41;19.30;18.60;13.00
50589;PMS7003;36547;50.514;30.840;2023-03-31T04:43:44;18.80;17.50;11.60
50589;PMS7003;36547;50.514;30.840;2023-03-31T04:44:46;20.00;18.40;13.20
50589;PMS7003;36547;50.514;30.840;2023-03-31T04:45:48;21.20;19.40;14.10
50589;PMS7003;36547;50.514;30.840;2023-03-31T04:46:50;23.90;18.50;13.90
50589;PMS7003;36547;50.514;30.840;2023-03-31T04:47:52;21.20;19.50;14.30
50589;PMS7003;36547;50.514;30.840;2023-03-31T04:48:55;23.30;21.60;14.20
50589;PMS7003;36547;50.514;30.840;2023-03-31T04:49:57;26.50;26.40;18.10
50589;PMS7003;36547;50.514;30.840;2023-03-31T04:50:59;29.40;25.30;16.30
50589;PMS7003;36547;50.514;30.840;2023-03-31T04:52:02;25.10;21.00;15.50
50589;PMS7003;36547;50.514;30.840;2023-03-31T04:53:04;26.60;20.60;15.50
50589;PMS7003;36547;50.514;30.840;2023-03-31T04:54:06;21.00;19.00;14.90
50589;PMS7003;36547;50.514;30.840;2023-03-31T04:55:08;21.10;19.00;13.60
50589;PMS7003;36547;50.514;30.840;2023-03-31T04:56:11;19.70;16.00;12.80
50589;PMS7003;36547;50.514;30.840;2023-03-31T04:57:13;15.90;15.90;11.20
50589;PMS7003;36547;50.514;30.840;2023-03-31T04:58:16;18.30;16.80;12.50
50589;PMS7003;36547;50.514;30.840;2023-03-31T04:59:18;15.60;14.30;11.80
50589;PMS7003;36547;50.514;30.840;2023-03-31T05:00:21;17.56;16.44;12.56
50589;PMS7003;36547;50.514;30.840;2023-03-31T05:01:23;18.00;16.80;12.90
50589;PMS7003;36547;50.514;30.840;2023-03-31T05:02:25;19.30;16.60;11.40
50589;PMS7003;36547;50.514;30.840;2023-03-31T05:03:28;25.91;19.55;13.00
50589;PMS7003;36547;50.514;30.840;2023-03-31T05:04:31;22.80;17.80;12.90
50589;PMS7003;36547;50.514;30.840;2023-03-31T05:05:33;19.10;16.80;12.70
50589;PMS7003;36547;50.514;30.840;2023-03-31T05:06:36;25.00;24.00;14.27
50589;PMS7003;36547;50.514;30.840;2023-03-31T05:07:38;21.90;20.30;14.10
50589;PMS7003;36547;50.514;30.840;2023-03-31T05:08:41;28.00;25.70;15.80
50589;PMS7003;36547;50.514;30.840;2023-03-31T05:09:43;27.20;24.60;15.90
50589;PMS7003;36547;50.514;30.840;2023-03-31T05:10:46;27.30;23.90;14.40
50589;PMS7003;36547;50.514;30.840;2023-03-31T05:11:48;25.33;22.22;15.33
50589;PMS7003;36547;50.514;30.840;2023-03-31T05:12:51;24.60;21.70;15.40
50589;PMS7003;36547;50.514;30.840;2023-03-31T05:13:53;21.60;20.10;14.30
50589;PMS7003;36547;50.514;30.840;2023-03-31T05:14:55;22.10;20.30;14.10
50589;PMS7003;36547;50.514;30.840;2023-03-31T05:15:57;20.67;18.89;14.11
50589;PMS7003;36547;50.514;30.840;2023-03-31T05:17:02;18.90;18.00;12.90
50589;PMS7003;36547;50.514;30.840;2023-03-31T05:18:04;21.00;18.50;12.30
50589;PMS7003;36547;50.514;30.840;2023-03-31T05:19:07;14.40;13.40;11.70
50589;PMS7003;36547;50.514;30.840;2023-03-31T05:20:11;16.70;14.90;11.10
50589;PMS7003;36547;50.514;30.840;2023-03-31T05:21:15;18.55;15.64;11.82
50589;PMS7003;36547;50.514;30.840;2023-03-31T05:22:19;17.10;13.80;9.80
50589;PMS7003;36547;50.514;30.840;2023-03-31T05:23:21;15.80;15.80;11.30
50589;PMS7003;36547;50.514;30.840;2023-03-31T05:24:23;17.00;16.50;11.20
50589;PMS7003;36547;50.514;30.840;2023-03-31T05:25:26;15.20;14.50;12.10
50589;PMS7003;36547;50.514;30.840;2023-03-31T05:26:29;18.36;16.36;11.00
50589;PMS7003;36547;50.514;30.840;2023-03-31T05:27:31;20.00;15.70;11.00
50589;PMS7003;36547;50.514;30.840;2023-03-31T05:28:34;17.00;13.30;9.90
50589;PMS7003;36547;50.514;30.840;2023-03-31T05:29:37;17.00;13.40;10.90
50589;PMS7003;36547;50.514;30.840;2023-03-31T05:30:40;16.30;16.00;12.40
50589;PMS7003;36547;50.514;30.840;2023-03-31T05:31:42;19.00;16.40;12.30
50589;PMS7003;36547;50.514;30.840;2023-03-31T05:32:45;14.90;14.90;10.70
50589;PMS7003;36547;50.514;30.840;2023-03-31T05:33:47;14.50;13.30;9.30
50589;PMS7003;36547;50.514;30.840;2023-03-31T05:34:50;18.30;17.30;12.10
50589;PMS7003;36547;50.514;30.840;2023-03-31T05:35:53;19.60;16.50;12.90
50589;PMS7003;36547;50.514;30.840;2023-03-31T05:36:55;19.60;16.80;12.10
50589;PMS7003;36547;50.514;30.840;2023-03-31T05:37:59;17.30;14.70;10.70
50589;PMS7003;36547;50.514;30.840;2023-03-31T05:39:01;17.22;16.67;11.11
50589;PMS7003;36547;50.514;30.840;2023-03-31T05:40:03;18.20;15.40;11.20
50589;PMS7003;36547;50.514;30.840;2023-03-31T05:41:06;19.82;16.45;12.09
50589;PMS7003;36547;50.514;30.840;2023-03-31T05:42:09;17.36;14.27;10.82
50589;PMS7003;36547;50.514;30.840;2023-03-31T05:43:11;17.10;16.10;11.50
50589;PMS7003;36547;50.514;30.840;2023-03-31T05:44:13;18.50;15.00;12.30
50589;PMS7003;36547;50.514;30.840;2023-03-31T05:45:15;21.00;17.10;11.30
50589;PMS7003;36547;50.514;30.840;2023-03-31T05:46:18;17.40;15.90;11.50
50589;PMS7003;36547;50.514;30.840;2023-03-31T05:47:20;20.40;19.20;14.40
50589;PMS7003;36547;50.514;30.840;2023-03-31T05:48:23;21.10;19.50;14.10
50589;PMS7003;36547;50.514;30.840;2023-03-31T05:49:25;20.60;19.70;14.10
50589;PMS7003;36547;50.514;30.840;2023-03-31T05:50:27;22.80;22.20;15.00
50589;PMS7003;36547;50.514;30.840;2023-03-31T05:51:30;23.80;22.70;15.60
50589;PMS7003;36547;50.514;30.840;2023-03-31T05:52:32;27.20;23.00;16.50
50589;PMS7003;36547;50.514;30.840;2023-03-31T05:53:35;26.20;23.10;18.90
50589;PMS7003;36547;50.514;30.840;2023-03-31T05:54:37;33.30;29.10;19.50
50589;PMS7003;36547;50.514;30.840;2023-03-31T05:55:39;29.56;25.11;18.44
50589;PMS7003;36547;50.514;30.840;2023-03-31T05:56:42;32.40;28.70;18.70
50589;PMS7003;36547;50.514;30.840;2023-03-31T05:57:44;26.00;25.22;17.22
50589;PMS7003;36547;50.514;30.840;2023-03-31T05:58:46;23.56;22.67;16.78
50589;PMS7003;36547;50.514;30.840;2023-03-31T05:59:48;25.90;23.00;16.00
50589;PMS7003;36547;50.514;30.840;2023-03-31T06:00:58;23.11;22.22;15.89
50589;PMS7003;36547;50.514;30.840;2023-03-31T06:02:11;24.40;21.40;14.80
50589;PMS7003;36547;50.514;30.840;2023-03-31T06:03:14;26.90;21.90;14.80
50589;PMS7003;36547;50.514;30.840;2023-03-31T06:04:16;24.60;20.90;14.20
50589;PMS7003;36547;50.514;30.840;2023-03-31T06:05:18;25.10;21.10;14.00
50589;PMS7003;36547;50.514;30.840;2023-03-31T06:06:21;21.70;19.70;14.10
50589;PMS7003;36547;50.514;30.840;2023-03-31T06:07:24;24.27;20.09;14.36
50589;PMS7003;36547;50.514;30.840;2023-03-31T06:08:27;24.00;21.50;14.10
50589;PMS7003;36547;50.514;30.840;2023-03-31T06:09:31;20.00;17.80;13.50
50589;PMS7003;36547;50.514;30.840;2023-03-31T06:10:34;27.90;23.20;15.30
50589;PMS7003;36547;50.514;30.840;2023-03-31T06:11:39;26.20;21.40;14.30
50589;PMS7003;36547;50.514;30.840;2023-03-31T06:12:41;24.10;21.00;14.00
50589;PMS7003;36547;50.514;30.840;2023-03-31T06:13:44;24.30;22.70;15.20
50589;PMS7003;36547;50.514;30.840;2023-03-31T06:14:47;30.50;25.80;17.30
50589;PMS7003;36547;50.514;30.840;2023-03-31T06:15:53;29.30;27.80;18.60
50589;PMS7003;36547;50.514;30.840;2023-03-31T06:16:59;35.00;29.00;18.40
50589;PMS7003;36547;50.514;30.840;2023-03-31T06:18:01;30.90;29.10;20.00
50589;PMS7003;36547;50.514;30.840;2023-03-31T06:19:03;29.56;26.78;19.67
50589;PMS7003;36547;50.514;30.840;2023-03-31T06:20:06;35.40;30.40;19.10
50589;PMS7003;36547;50.514;30.840;2023-03-31T06:21:14;30.50;28.00;19.80
50589;PMS7003;36547;50.514;30.840;2023-03-31T06:22:19;29.90;28.70;17.70
50589;PMS7003;36547;50.514;30.840;2023-03-31T06:23:25;29.20;28.10;19.50
50589;PMS7003;36547;50.514;30.840;2023-03-31T06:24:28;23.60;21.40;16.00
50589;PMS7003;36547;50.514;30.840;2023-03-31T06:25:31;23.10;21.20;15.90
50589;PMS7003;36547;50.514;30.840;2023-03-31T06:26:36;17.70;16.70;14.50
50589;PMS7003;36547;50.514;30.840;2023-03-31T06:27:38;25.10;21.70;15.60
50589;PMS7003;36547;50.514;30.840;2023-03-31T06:28:41;23.10;20.80;15.40
50589;PMS7003;36547;50.514;30.840;2023-03-31T06:29:44;23.20;22.10;15.00
50589;PMS7003;36547;50.514;30.840;2023-03-31T06:30:47;27.00;24.40;16.70
50589;PMS7003;36547;50.514;30.840;2023-03-31T06:31:49;27.70;25.60;17.60
50589;PMS7003;36547;50.514;30.840;2023-03-31T06:32:51;25.44;24.11;15.89
50589;PMS7003;36547;50.514;30.840;2023-03-31T06:33:53;28.80;24.50;15.30
50589;PMS7003;36547;50.514;30.840;2023-03-31T06:34:56;31.20;28.30;16.50
50589;PMS7003;36547;50.514;30.840;2023-03-31T06:35:58;32.60;27.80;17.40
50589;PMS7003;36547;50.514;30.840;2023-03-31T06:37:07;30.10;26.80;14.70
50589;PMS7003;36547;50.514;30.840;2023-03-31T06:38:09;24.70;23.70;16.50
50589;PMS7003;36547;50.514;30.840;2023-03-31T06:39:12;30.80;24.70;16.40
50589;PMS7003;36547;50.514;30.840;2023-03-31T06:40:15;22.70;20.80;14.60
50589;PMS7003;36547;50.514;30.840;2023-03-31T06:41:17;24.10;20.70;13.60
50589;PMS7003;36547;50.514;30.840;2023-03-31T06:42:21;18.90;16.00;11.90
50589;PMS7003;36547;50.514;30.840;2023-03-31T06:43:23;19.60;17.90;12.70
50589;PMS7003;36547;50.514;30.840;2023-03-31T06:44:26;15.09;14.18;10.64
50589;PMS7003;36547;50.514;30.840;2023-03-31T06:45:28;14.20;13.60;8.40
50589;PMS7003;36547;50.514;30.840;2023-03-31T06:46:31;15.20;14.10;8.90
50589;PMS7003;36547;50.514;30.840;2023-03-31T06:47:33;17.40;15.60;11.30
50589;PMS7003;36547;50.514;30.840;2023-03-31T06:48:35;18.10;14.90;10.20
50589;PMS7003;36547;50.514;30.840;2023-03-31T06:49:38;19.30;17.00;12.20